createdAt,value
2017-11-16T00:00:13.427Z,8.50
2017-11-16T00:01:15.894Z,8.50
2017-11-16T00:02:18.360Z,8.50
2017-11-16T00:03:21.611Z,8.50
2017-11-16T00:04:24.132Z,8.50
2017-11-16T00:05:26.675Z,8.50
2017-11-16T00:06:29.141Z,8.50
2017-11-16T00:07:31.640Z,8.50
2017-11-16T00:08:34.232Z,8.50
2017-11-16T00:09:37.531Z,8.50
2017-11-16T00:10:40.779Z,8.50
2017-11-16T00:11:44.015Z,8.50
2017-11-16T00:12:46.597Z,8.50
2017-11-16T00:13:49.095Z,8.50
2017-11-16T00:14:51.660Z,8.50
2017-11-16T00:15:54.188Z,8.50
2017-11-16T00:16:56.701Z,8.60
2017-11-16T00:17:59.309Z,8.60
2017-11-16T00:19:02.689Z,8.60
2017-11-16T00:20:05.179Z,8.60
2017-11-16T00:21:08.457Z,8.60
2017-11-16T00:22:10.955Z,8.60
2017-11-16T00:23:14.191Z,8.50
2017-11-16T00:24:17.453Z,8.50
2017-11-16T00:25:19.930Z,8.50
2017-11-16T00:26:22.446Z,8.50
2017-11-16T00:27:24.939Z,8.50
2017-11-16T00:28:27.431Z,8.50
2017-11-16T00:29:30.662Z,8.60
2017-11-16T00:30:33.960Z,8.50
2017-11-16T00:31:36.473Z,8.50
2017-11-16T00:32:38.977Z,8.50
2017-11-16T00:33:41.460Z,8.50
2017-11-16T00:34:43.919Z,8.50
2017-11-16T00:35:47.192Z,8.60
2017-11-16T00:36:49.663Z,8.50
2017-11-16T00:37:52.244Z,8.50
2017-11-16T00:38:54.903Z,8.50
2017-11-16T00:39:57.403Z,8.50
2017-11-16T00:40:59.968Z,8.60
2017-11-16T00:42:02.443Z,8.60
2017-11-16T00:43:04.956Z,8.60
2017-11-16T00:44:07.463Z,8.60
2017-11-16T00:45:09.935Z,8.60
2017-11-16T00:46:12.439Z,8.60
2017-11-16T00:47:14.978Z,8.60
2017-11-16T00:48:17.481Z,8.60
2017-11-16T00:49:20.736Z,8.60
2017-11-16T00:50:23.216Z,8.60
2017-11-16T00:51:25.808Z,8.50
2017-11-16T00:52:28.276Z,8.50
2017-11-16T00:53:30.761Z,8.60
2017-11-16T00:54:33.260Z,8.50
2017-11-16T00:55:35.749Z,8.50
2017-11-16T00:56:38.240Z,8.50
2017-11-16T00:57:40.729Z,8.50
2017-11-16T00:58:43.984Z,8.50
2017-11-16T00:59:46.446Z,8.50
2017-11-16T01:00:48.911Z,8.50
2017-11-16T01:01:52.176Z,8.50
2017-11-16T01:02:54.667Z,8.50
2017-11-16T01:03:57.132Z,8.50
2017-11-16T01:04:59.629Z,8.50
2017-11-16T01:06:02.888Z,8.50
2017-11-16T01:07:05.430Z,8.50
2017-11-16T01:08:07.901Z,8.50
2017-11-16T01:09:10.374Z,8.50
2017-11-16T01:10:12.889Z,8.50
2017-11-16T01:11:15.386Z,8.50
2017-11-16T01:12:18.133Z,8.50
2017-11-16T01:13:21.373Z,8.50
2017-11-16T01:14:24.640Z,8.50
2017-11-16T01:15:27.152Z,8.50
2017-11-16T01:16:29.707Z,8.50
2017-11-16T01:17:32.213Z,8.50
2017-11-16T01:18:34.745Z,8.50
2017-11-16T01:19:37.269Z,8.50
2017-11-16T01:20:39.776Z,8.50
2017-11-16T01:21:43.056Z,8.60
2017-11-16T01:22:46.289Z,8.60
2017-11-16T01:23:48.781Z,8.60
2017-11-16T01:24:52.027Z,8.60
2017-11-16T01:25:55.409Z,8.50
2017-11-16T01:26:57.936Z,8.50
2017-11-16T01:28:00.498Z,8.60
2017-11-16T01:29:03.039Z,8.60
2017-11-16T01:30:06.297Z,8.50
2017-11-16T01:31:09.543Z,8.50
2017-11-16T01:32:11.998Z,8.50
2017-11-16T01:33:14.547Z,8.60
2017-11-16T01:34:17.291Z,8.60
2017-11-16T01:35:19.781Z,8.60
2017-11-16T01:36:22.250Z,8.60
2017-11-16T01:37:25.482Z,8.60
2017-11-16T01:38:27.975Z,8.60
2017-11-16T01:39:30.493Z,8.60
2017-11-16T01:40:32.982Z,8.60
2017-11-16T01:41:36.257Z,8.60
2017-11-16T01:42:39.487Z,8.60
2017-11-16T01:43:41.968Z,8.60
2017-11-16T01:44:44.473Z,8.60
2017-11-16T01:45:46.943Z,8.60
2017-11-16T01:46:50.186Z,8.50
2017-11-16T01:47:53.422Z,8.60
2017-11-16T01:48:56.786Z,8.60
2017-11-16T01:49:59.281Z,8.60
2017-11-16T01:51:01.750Z,8.60
2017-11-16T01:52:04.226Z,8.60
2017-11-16T01:53:06.700Z,8.60
2017-11-16T01:54:09.211Z,8.60
2017-11-16T01:55:11.738Z,8.60
2017-11-16T01:56:14.188Z,8.60
2017-11-16T01:57:16.663Z,8.60
2017-11-16T01:58:19.902Z,8.70
2017-11-16T01:59:22.371Z,8.60
2017-11-16T02:00:24.876Z,8.60
2017-11-16T02:01:27.335Z,8.60
2017-11-16T02:02:39.819Z,8.60
2017-11-16T02:03:42.294Z,8.60
2017-11-16T02:04:44.788Z,8.60
2017-11-16T02:05:48.018Z,8.60
2017-11-16T02:06:50.470Z,8.60
2017-11-16T02:07:53.009Z,8.60
2017-11-16T02:08:55.519Z,8.60
2017-11-16T02:09:58.778Z,8.60
2017-11-16T02:11:01.243Z,8.60
2017-11-16T02:12:03.721Z,8.60
2017-11-16T02:13:06.170Z,8.60
2017-11-16T02:14:08.636Z,8.60
2017-11-16T02:15:11.918Z,8.60
2017-11-16T02:16:14.391Z,8.60
2017-11-16T02:17:16.855Z,8.60
2017-11-16T02:18:19.318Z,8.60
2017-11-16T02:19:21.780Z,8.60
2017-11-16T02:20:25.025Z,8.60
2017-11-16T02:21:28.254Z,8.60
2017-11-16T02:22:30.809Z,8.60
2017-11-16T02:23:33.311Z,8.60
2017-11-16T02:24:35.776Z,8.60
2017-11-16T02:25:38.305Z,8.60
2017-11-16T02:26:40.798Z,8.60
2017-11-16T02:27:44.022Z,8.70
2017-11-16T02:28:47.251Z,8.70
2017-11-16T02:29:49.814Z,8.70
2017-11-16T02:30:53.257Z,8.60
2017-11-16T02:31:56.528Z,8.60
2017-11-16T02:32:59.307Z,8.60
2017-11-16T02:34:01.879Z,8.60
2017-11-16T02:35:04.346Z,8.60
2017-11-16T02:36:06.822Z,8.60
2017-11-16T02:37:09.373Z,8.60
2017-11-16T02:38:11.849Z,8.60
2017-11-16T02:39:14.327Z,8.60
2017-11-16T02:40:16.801Z,8.60
2017-11-16T02:41:20.040Z,8.60
2017-11-16T02:42:22.609Z,8.60
2017-11-16T02:43:25.071Z,8.60
2017-11-16T02:44:27.530Z,8.60
2017-11-16T02:45:30.770Z,8.60
2017-11-16T02:46:34.004Z,8.60
2017-11-16T02:47:37.284Z,8.60
2017-11-16T02:48:39.760Z,8.60
2017-11-16T02:49:43.042Z,8.60
2017-11-16T02:50:45.585Z,8.60
2017-11-16T02:51:48.051Z,8.50
2017-11-16T02:52:50.557Z,8.60
2017-11-16T02:53:53.131Z,8.60
2017-11-16T02:54:55.675Z,8.60
2017-11-16T02:55:58.140Z,8.60
2017-11-16T02:57:00.887Z,8.60
2017-11-16T02:58:03.372Z,8.60
2017-11-16T02:59:05.864Z,8.60
2017-11-16T03:00:09.102Z,8.60
2017-11-16T03:01:12.330Z,8.60
2017-11-16T03:02:14.870Z,8.60
2017-11-16T03:03:18.099Z,8.60
2017-11-16T03:04:20.566Z,8.60
2017-11-16T03:05:23.036Z,8.60
2017-11-16T03:06:25.598Z,8.60
2017-11-16T03:07:28.845Z,8.60
2017-11-16T03:08:31.923Z,8.60
2017-11-16T03:09:34.511Z,8.60
2017-11-16T03:10:37.788Z,8.60
2017-11-16T03:11:40.247Z,8.60
2017-11-16T03:12:42.720Z,8.60
2017-11-16T03:13:45.208Z,8.60
2017-11-16T03:14:48.449Z,8.60
2017-11-16T03:15:51.735Z,8.60
2017-11-16T03:16:54.197Z,8.60
2017-11-16T03:17:56.670Z,8.60
2017-11-16T03:18:59.173Z,8.60
2017-11-16T03:20:02.415Z,8.60
2017-11-16T03:21:05.703Z,8.60
2017-11-16T03:22:08.196Z,8.60
2017-11-16T03:23:11.431Z,8.60
2017-11-16T03:24:14.686Z,8.70
2017-11-16T03:25:17.201Z,8.70
2017-11-16T03:26:20.551Z,8.60
2017-11-16T03:27:23.950Z,8.60
2017-11-16T03:28:26.470Z,8.60
2017-11-16T03:29:28.986Z,8.60
2017-11-16T03:30:31.475Z,8.50
2017-11-16T03:31:33.934Z,8.50
2017-11-16T03:32:36.411Z,8.50
2017-11-16T03:33:39.721Z,8.50
2017-11-16T03:34:42.200Z,8.50
2017-11-16T03:35:44.699Z,8.50
2017-11-16T03:36:47.925Z,8.50
2017-11-16T03:37:50.416Z,8.50
2017-11-16T03:38:52.922Z,8.50
2017-11-16T03:39:55.405Z,8.50
2017-11-16T03:40:57.867Z,8.50
2017-11-16T03:42:00.323Z,8.60
2017-11-16T03:43:02.827Z,8.50
2017-11-16T03:44:05.276Z,8.50
2017-11-16T03:45:07.732Z,8.50
2017-11-16T03:46:10.179Z,8.50
2017-11-16T03:47:13.462Z,8.50
2017-11-16T03:48:15.981Z,8.50
2017-11-16T03:49:18.446Z,8.50
2017-11-16T03:50:21.683Z,8.50
2017-11-16T03:51:24.147Z,8.50
2017-11-16T03:52:26.666Z,8.50
2017-11-16T03:53:29.172Z,8.60
2017-11-16T03:54:31.634Z,8.60
2017-11-16T03:55:34.091Z,8.60
2017-11-16T03:56:36.571Z,8.60
2017-11-16T03:57:39.401Z,8.50
2017-11-16T03:58:41.913Z,8.50
2017-11-16T03:59:45.163Z,8.50
2017-11-16T04:00:48.414Z,8.50
2017-11-16T04:01:50.988Z,8.50
2017-11-16T04:02:53.477Z,8.50
2017-11-16T04:03:55.939Z,8.50
2017-11-16T04:04:58.416Z,8.50
2017-11-16T04:06:00.892Z,8.60
2017-11-16T04:07:03.364Z,8.60
2017-11-16T04:08:05.891Z,8.60
2017-11-16T04:09:08.366Z,8.60
2017-11-16T04:10:10.832Z,8.60
2017-11-16T04:11:14.056Z,8.60
2017-11-16T04:12:17.371Z,8.60
2017-11-16T04:13:19.963Z,8.60
2017-11-16T04:14:22.453Z,8.60
2017-11-16T04:15:25.721Z,8.50
2017-11-16T04:16:28.273Z,8.50
2017-11-16T04:17:30.744Z,8.60
2017-11-16T04:18:33.215Z,8.60
2017-11-16T04:19:35.701Z,8.60
2017-11-16T04:20:39.062Z,8.50
2017-11-16T04:21:41.613Z,8.50
2017-11-16T04:22:44.070Z,8.60
2017-11-16T04:23:46.554Z,8.50
2017-11-16T04:24:49.051Z,8.50
2017-11-16T04:25:52.311Z,8.50
2017-11-16T04:26:54.807Z,8.50
2017-11-16T04:27:58.031Z,8.50
2017-11-16T04:30:14.058Z,8.50
2017-11-16T04:31:17.318Z,8.50
2017-11-16T04:32:19.873Z,8.50
2017-11-16T04:33:22.338Z,8.50
2017-11-16T04:34:25.570Z,8.50
2017-11-16T04:35:28.039Z,8.50
2017-11-16T04:36:30.512Z,8.50
2017-11-16T04:37:33.025Z,8.40
2017-11-16T04:38:35.494Z,8.50
2017-11-16T04:39:38.755Z,8.50
2017-11-16T04:40:42.011Z,8.50
2017-11-16T04:41:44.533Z,8.50
2017-11-16T04:42:47.064Z,8.50
2017-11-16T04:43:49.553Z,8.50
2017-11-16T04:44:52.032Z,8.50
2017-11-16T04:45:54.546Z,8.50
2017-11-16T04:46:57.047Z,8.50
2017-11-16T04:47:59.579Z,8.50
2017-11-16T04:49:02.822Z,8.50
2017-11-16T04:50:05.333Z,8.50
2017-11-16T04:51:08.952Z,8.50
2017-11-16T04:52:11.428Z,8.50
2017-11-16T04:53:14.292Z,8.50
2017-11-16T04:54:16.755Z,8.50
2017-11-16T04:55:19.983Z,8.50
2017-11-16T04:56:22.476Z,8.50
2017-11-16T04:57:24.962Z,8.50
2017-11-16T04:58:28.222Z,8.50
2017-11-16T04:59:30.745Z,8.50
2017-11-16T05:00:33.285Z,8.50
2017-11-16T05:01:35.759Z,8.50
2017-11-16T05:02:38.243Z,8.50
2017-11-16T05:03:40.827Z,8.50
2017-11-16T05:04:44.067Z,8.50
2017-11-16T05:05:47.298Z,8.50
2017-11-16T05:06:49.778Z,8.50
2017-11-16T05:07:52.275Z,8.50
2017-11-16T05:08:55.732Z,8.50
2017-11-16T05:09:58.251Z,8.50
2017-11-16T05:11:00.727Z,8.50
2017-11-16T05:12:04.150Z,8.50
2017-11-16T05:13:06.615Z,8.50
2017-11-16T05:14:09.105Z,8.50
2017-11-16T05:15:11.595Z,8.50
2017-11-16T05:16:14.056Z,8.50
2017-11-16T05:17:16.533Z,8.50
2017-11-16T05:18:19.760Z,8.60
2017-11-16T05:19:23.010Z,8.60
2017-11-16T05:20:26.270Z,8.60
2017-11-16T05:21:28.735Z,8.60
2017-11-16T05:22:31.413Z,8.50
2017-11-16T05:23:34.673Z,8.50
2017-11-16T05:24:37.185Z,8.50
2017-11-16T05:25:40.427Z,8.60
2017-11-16T05:26:43.662Z,8.50
2017-11-16T05:27:46.907Z,8.50
2017-11-16T05:28:50.191Z,8.50
2017-11-16T05:29:52.675Z,8.50
2017-11-16T05:30:55.937Z,8.50
2017-11-16T05:31:58.414Z,8.50
2017-11-16T05:33:00.922Z,8.50
2017-11-16T05:34:03.421Z,8.60
2017-11-16T05:35:06.017Z,8.50
2017-11-16T05:36:09.296Z,8.50
2017-11-16T05:37:11.801Z,8.50
2017-11-16T05:38:14.282Z,8.50
2017-11-16T05:39:16.865Z,8.50
2017-11-16T05:40:19.348Z,8.50
2017-11-16T05:41:21.824Z,8.50
2017-11-16T05:42:24.468Z,8.50
2017-11-16T05:43:26.949Z,8.50
2017-11-16T05:44:29.509Z,8.50
2017-11-16T05:45:31.975Z,8.60
2017-11-16T05:46:34.552Z,8.60
2017-11-16T05:47:37.023Z,8.60
2017-11-16T05:48:39.519Z,8.60
2017-11-16T05:49:41.986Z,8.60
2017-11-16T05:50:44.451Z,8.60
2017-11-16T05:51:46.979Z,8.60
2017-11-16T05:52:49.471Z,8.50
2017-11-16T05:53:52.741Z,8.60
2017-11-16T05:54:55.274Z,8.60
2017-11-16T05:55:57.740Z,8.50
2017-11-16T05:57:00.249Z,8.60
2017-11-16T05:58:02.731Z,8.60
2017-11-16T05:59:05.247Z,8.60
2017-11-16T06:00:08.496Z,8.50
2017-11-16T06:01:11.726Z,8.50
2017-11-16T06:02:14.988Z,8.50
2017-11-16T06:03:17.504Z,8.50
2017-11-16T06:04:20.773Z,8.50
2017-11-16T06:05:23.271Z,8.50
2017-11-16T06:06:26.480Z,8.50
2017-11-16T06:07:29.024Z,8.50
2017-11-16T06:08:32.331Z,8.50
2017-11-16T06:09:34.849Z,8.50
2017-11-16T06:10:37.444Z,8.60
2017-11-16T06:11:39.907Z,8.50
2017-11-16T06:12:42.418Z,8.50
2017-11-16T06:13:44.884Z,8.50
2017-11-16T06:14:47.346Z,8.50
2017-11-16T06:15:49.813Z,8.50
2017-11-16T06:16:52.284Z,8.50
2017-11-16T06:17:55.539Z,8.50
2017-11-16T06:18:58.007Z,8.50
2017-11-16T06:20:00.487Z,8.50
2017-11-16T06:21:02.965Z,8.50
2017-11-16T06:22:05.437Z,8.50
2017-11-16T06:23:07.915Z,8.50
2017-11-16T06:24:11.062Z,8.50
2017-11-16T06:25:13.636Z,8.50
2017-11-16T06:26:16.104Z,8.50
2017-11-16T06:27:18.578Z,8.50
2017-11-16T06:28:21.070Z,8.50
2017-11-16T06:29:23.552Z,8.50
2017-11-16T06:30:26.106Z,8.50
2017-11-16T06:31:28.597Z,8.50
2017-11-16T06:32:31.082Z,8.50
2017-11-16T06:33:34.426Z,8.50
2017-11-16T06:34:37.652Z,8.50
2017-11-16T06:35:40.239Z,8.50
2017-11-16T06:36:42.720Z,8.50
2017-11-16T06:37:45.986Z,8.40
2017-11-16T06:38:48.509Z,8.40
2017-11-16T06:39:50.978Z,8.50
2017-11-16T06:40:53.437Z,8.50
2017-11-16T06:41:56.701Z,8.40
2017-11-16T06:42:59.961Z,8.40
2017-11-16T06:44:02.455Z,8.40
2017-11-16T06:45:05.696Z,8.40
2017-11-16T06:46:08.916Z,8.50
2017-11-16T06:47:11.379Z,8.40
2017-11-16T06:48:13.846Z,8.50
2017-11-16T06:49:16.329Z,8.50
2017-11-16T06:50:18.793Z,8.50
2017-11-16T06:51:21.276Z,8.50
2017-11-16T06:52:24.539Z,8.40
2017-11-16T06:53:27.004Z,8.50
2017-11-16T06:54:29.491Z,8.40
2017-11-16T06:55:31.954Z,8.40
2017-11-16T06:56:34.419Z,8.40
2017-11-16T06:57:36.933Z,8.50
2017-11-16T06:58:40.204Z,8.50
2017-11-16T06:59:42.681Z,8.50
2017-11-16T07:00:45.917Z,8.50
2017-11-16T07:01:48.381Z,8.50
2017-11-16T07:02:50.875Z,8.50
2017-11-16T07:03:54.135Z,8.50
2017-11-16T07:04:57.357Z,8.50
2017-11-16T07:06:00.583Z,8.50
2017-11-16T07:07:03.084Z,8.50
2017-11-16T07:08:05.569Z,8.50
2017-11-16T07:09:08.794Z,8.50
2017-11-16T07:10:12.026Z,8.50
2017-11-16T07:11:14.595Z,8.50
2017-11-16T07:12:17.114Z,8.50
2017-11-16T07:13:19.622Z,8.50
2017-11-16T07:14:22.882Z,8.50
2017-11-16T07:15:26.131Z,8.50
2017-11-16T07:16:28.584Z,8.50
2017-11-16T07:17:31.072Z,8.50
2017-11-16T07:18:33.540Z,8.50
2017-11-16T07:19:36.059Z,8.50
2017-11-16T07:20:38.544Z,8.50
2017-11-16T07:21:41.765Z,8.50
2017-11-16T07:22:44.227Z,8.50
2017-11-16T07:23:46.694Z,8.50
2017-11-16T07:24:49.274Z,8.50
2017-11-16T07:25:52.519Z,8.50
2017-11-16T07:26:55.000Z,8.50
2017-11-16T07:27:57.567Z,8.60
2017-11-16T07:29:00.045Z,8.60
2017-11-16T07:30:02.518Z,8.50
2017-11-16T07:31:04.990Z,8.50
2017-11-16T07:32:07.482Z,8.50
2017-11-16T07:33:09.953Z,8.50
2017-11-16T07:34:12.436Z,8.50
2017-11-16T07:35:15.605Z,8.50
2017-11-16T07:36:18.080Z,8.50
2017-11-16T07:37:20.559Z,8.50
2017-11-16T07:38:23.033Z,8.50
2017-11-16T07:39:25.562Z,8.40
2017-11-16T07:40:28.041Z,8.50
2017-11-16T07:41:30.514Z,8.50
2017-11-16T07:42:33.003Z,8.50
2017-11-16T07:43:35.482Z,8.50
2017-11-16T07:44:37.955Z,8.50
2017-11-16T07:45:40.458Z,8.50
2017-11-16T07:46:42.951Z,8.50
2017-11-16T07:47:45.408Z,8.50
2017-11-16T07:48:47.875Z,8.50
2017-11-16T07:49:50.334Z,8.60
2017-11-16T07:50:52.836Z,8.60
2017-11-16T07:51:55.309Z,8.60
2017-11-16T07:52:57.787Z,8.60
2017-11-16T07:54:00.292Z,8.60
2017-11-16T07:55:03.578Z,8.70
2017-11-16T07:56:06.074Z,8.60
2017-11-16T07:57:08.549Z,8.60
2017-11-16T07:58:11.020Z,8.60
2017-11-16T07:59:13.543Z,8.60
2017-11-16T08:00:16.035Z,8.60
2017-11-16T08:01:18.499Z,8.70
2017-11-16T08:02:21.296Z,8.70
2017-11-16T08:03:23.758Z,8.70
2017-11-16T08:04:26.276Z,8.60
2017-11-16T08:05:28.806Z,8.70
2017-11-16T08:06:31.292Z,8.70
2017-11-16T08:07:33.754Z,8.70
2017-11-16T08:08:36.283Z,8.70
2017-11-16T08:09:38.806Z,8.70
2017-11-16T08:10:41.311Z,8.70
2017-11-16T08:11:43.847Z,8.70
2017-11-16T08:12:47.115Z,8.70
2017-11-16T08:13:49.631Z,8.70
2017-11-16T08:14:52.105Z,8.70
2017-11-16T08:15:54.607Z,8.70
2017-11-16T08:16:57.099Z,8.70
2017-11-16T08:18:00.358Z,8.70
2017-11-16T08:19:02.835Z,8.70
2017-11-16T08:20:05.299Z,8.70
2017-11-16T08:21:07.795Z,8.80
2017-11-16T08:22:11.027Z,8.80
2017-11-16T08:23:13.487Z,8.80
2017-11-16T08:24:15.958Z,8.80
2017-11-16T08:25:18.418Z,8.80
2017-11-16T08:26:21.771Z,8.80
2017-11-16T08:27:24.990Z,8.80
2017-11-16T08:28:28.272Z,8.80
2017-11-16T08:29:30.735Z,8.80
2017-11-16T08:30:33.235Z,8.80
2017-11-16T08:31:35.715Z,8.80
2017-11-16T08:32:38.182Z,8.70
2017-11-16T08:33:40.677Z,8.80
2017-11-16T08:34:43.943Z,8.80
2017-11-16T08:35:46.409Z,8.80
2017-11-16T08:36:48.873Z,8.80
2017-11-16T08:37:52.093Z,8.80
2017-11-16T08:38:54.650Z,8.70
2017-11-16T08:39:57.132Z,8.80
2017-11-16T08:40:59.697Z,8.80
2017-11-16T08:42:02.943Z,8.70
2017-11-16T08:43:05.477Z,8.70
2017-11-16T08:44:07.945Z,8.70
2017-11-16T08:45:10.436Z,8.70
2017-11-16T08:46:12.909Z,8.80
2017-11-16T08:47:15.367Z,8.70
2017-11-16T08:48:17.854Z,8.70
2017-11-16T08:49:20.323Z,8.70
2017-11-16T08:50:22.787Z,8.70
2017-11-16T08:51:25.362Z,8.70
2017-11-16T08:52:27.921Z,8.70
2017-11-16T08:53:30.403Z,8.80
2017-11-16T08:54:33.718Z,8.80
2017-11-16T08:55:36.204Z,8.80
2017-11-16T08:56:38.704Z,8.80
2017-11-16T08:57:41.274Z,8.80
2017-11-16T08:58:43.752Z,8.80
2017-11-16T08:59:46.247Z,8.80
2017-11-16T09:00:48.716Z,8.80
2017-11-16T09:01:51.190Z,8.80
2017-11-16T09:02:53.659Z,8.80
2017-11-16T09:03:56.896Z,8.70
2017-11-16T09:05:00.165Z,8.80
2017-11-16T09:06:02.650Z,8.80
2017-11-16T09:07:05.102Z,8.80
2017-11-16T09:08:07.571Z,8.80
2017-11-16T09:09:10.080Z,8.80
2017-11-16T09:10:12.550Z,8.90
2017-11-16T09:11:15.781Z,8.90
2017-11-16T09:12:18.268Z,8.90
2017-11-16T09:13:20.770Z,8.90
2017-11-16T09:14:24.116Z,8.90
2017-11-16T09:15:26.567Z,8.90
2017-11-16T09:16:29.073Z,8.90
2017-11-16T09:17:31.590Z,8.90
2017-11-16T09:18:34.060Z,8.90
2017-11-16T09:19:36.539Z,8.90
2017-11-16T09:20:39.167Z,8.90
2017-11-16T09:21:41.675Z,8.90
2017-11-16T09:22:44.917Z,8.80
2017-11-16T09:23:48.142Z,8.80
2017-11-16T09:24:50.627Z,8.80
2017-11-16T09:25:53.170Z,8.80
2017-11-16T09:26:55.655Z,8.90
2017-11-16T09:27:58.144Z,8.90
2017-11-16T09:29:00.651Z,8.80
2017-11-16T09:30:03.160Z,8.80
2017-11-16T09:31:05.653Z,8.80
2017-11-16T09:32:08.132Z,8.80
2017-11-16T09:33:10.601Z,8.80
2017-11-16T09:34:13.076Z,8.90
2017-11-16T09:35:15.562Z,8.90
2017-11-16T09:36:18.039Z,8.90
2017-11-16T09:37:20.515Z,8.90
2017-11-16T09:38:23.012Z,8.90
2017-11-16T09:39:26.239Z,8.90
2017-11-16T09:40:28.704Z,8.90
2017-11-16T09:41:32.097Z,8.90
2017-11-16T09:42:34.566Z,9.00
2017-11-16T09:43:37.053Z,9.00
2017-11-16T09:44:39.613Z,9.00
2017-11-16T09:45:42.124Z,9.00
2017-11-16T09:46:45.358Z,9.00
2017-11-16T09:47:48.632Z,9.00
2017-11-16T09:48:51.089Z,9.00
2017-11-16T09:49:53.590Z,9.00
2017-11-16T09:50:56.053Z,9.00
2017-11-16T09:51:58.507Z,9.00
2017-11-16T09:53:01.740Z,9.10
2017-11-16T09:54:04.294Z,9.10
2017-11-16T09:55:06.787Z,9.10
2017-11-16T09:56:10.063Z,9.10
2017-11-16T09:57:12.540Z,9.10
2017-11-16T09:58:15.011Z,9.10
2017-11-16T09:59:17.510Z,9.10
2017-11-16T10:00:20.796Z,9.10
2017-11-16T10:01:23.401Z,9.10
2017-11-16T10:02:25.931Z,9.10
2017-11-16T10:03:28.432Z,9.20
2017-11-16T10:04:30.976Z,9.20
2017-11-16T10:05:34.345Z,9.20
2017-11-16T10:06:36.870Z,9.10
2017-11-16T10:07:39.339Z,9.20
2017-11-16T10:08:41.825Z,9.10
2017-11-16T10:09:44.298Z,9.10
2017-11-16T10:10:46.762Z,9.10
2017-11-16T10:11:49.227Z,9.20
2017-11-16T10:12:51.806Z,9.20
2017-11-16T10:13:54.382Z,9.20
2017-11-16T10:14:56.841Z,9.20
2017-11-16T10:16:00.108Z,9.20
2017-11-16T10:17:02.579Z,9.20
2017-11-16T10:18:05.045Z,9.20
2017-11-16T10:19:07.507Z,9.20
2017-11-16T10:20:09.975Z,9.20
2017-11-16T10:21:13.224Z,9.10
2017-11-16T10:22:16.504Z,9.10
2017-11-16T10:23:18.986Z,9.10
2017-11-16T10:24:22.247Z,9.20
2017-11-16T10:25:24.821Z,9.20
2017-11-16T10:26:27.405Z,9.20
2017-11-16T10:27:29.913Z,9.20
2017-11-16T10:28:33.182Z,9.20
2017-11-16T10:29:35.661Z,9.20
2017-11-16T10:30:38.211Z,9.20
2017-11-16T10:31:41.466Z,9.20
2017-11-16T10:32:43.972Z,9.20
2017-11-16T10:33:47.248Z,9.20
2017-11-16T10:34:49.716Z,9.20
2017-11-16T10:35:52.232Z,9.10
2017-11-16T10:36:54.732Z,9.10
2017-11-16T10:37:57.198Z,9.10
2017-11-16T10:38:59.682Z,9.00
2017-11-16T10:40:02.197Z,9.10
2017-11-16T10:41:04.658Z,9.10
2017-11-16T10:42:07.148Z,9.10
2017-11-16T10:43:09.615Z,9.10
2017-11-16T10:44:12.083Z,9.10
2017-11-16T10:45:14.589Z,9.20
2017-11-16T10:46:17.035Z,9.20
2017-11-16T10:47:19.580Z,9.20
2017-11-16T10:48:22.084Z,9.20
2017-11-16T10:49:24.577Z,9.20
2017-11-16T10:50:27.051Z,9.20
2017-11-16T10:51:29.527Z,9.30
2017-11-16T10:52:32.056Z,9.20
2017-11-16T10:53:34.557Z,9.30
2017-11-16T10:54:37.039Z,9.30
2017-11-16T10:55:39.511Z,9.30
2017-11-16T10:56:41.969Z,9.30
2017-11-16T10:57:45.372Z,9.30
2017-11-16T10:58:47.873Z,9.30
2017-11-16T10:59:50.383Z,9.30
2017-11-16T11:00:52.945Z,9.30
2017-11-16T11:01:55.414Z,9.30
2017-11-16T11:02:58.656Z,9.30
2017-11-16T11:04:01.930Z,9.30
2017-11-16T11:05:04.435Z,9.30
2017-11-16T11:06:07.677Z,9.20
2017-11-16T11:07:10.596Z,9.20
2017-11-16T11:08:13.831Z,9.30
2017-11-16T11:09:16.339Z,9.30
2017-11-16T11:10:18.822Z,9.30
2017-11-16T11:11:21.308Z,9.30
2017-11-16T11:12:23.793Z,9.30
2017-11-16T11:13:26.284Z,9.30
2017-11-16T11:14:29.546Z,9.30
2017-11-16T11:15:32.032Z,9.30
2017-11-16T11:16:35.401Z,9.40
2017-11-16T11:17:38.625Z,9.40
2017-11-16T11:18:41.866Z,9.40
2017-11-16T11:19:45.084Z,9.50
2017-11-16T11:20:47.558Z,9.50
2017-11-16T11:21:50.077Z,9.50
2017-11-16T11:22:52.539Z,9.50
2017-11-16T11:23:55.003Z,9.50
2017-11-16T11:24:57.554Z,9.50
2017-11-16T11:26:00.085Z,9.50
2017-11-16T11:27:02.560Z,9.50
2017-11-16T11:28:05.023Z,9.50
2017-11-16T11:29:07.490Z,9.60
2017-11-16T11:30:09.992Z,9.60
2017-11-16T11:31:12.551Z,9.60
2017-11-16T11:32:15.072Z,9.60
2017-11-16T11:33:17.535Z,9.60
2017-11-16T11:34:20.772Z,9.50
2017-11-16T11:35:23.262Z,9.60
2017-11-16T11:36:25.724Z,9.60
2017-11-16T11:37:28.987Z,9.60
2017-11-16T11:38:32.212Z,9.70
2017-11-16T11:39:35.447Z,9.70
2017-11-16T11:40:38.675Z,9.70
2017-11-16T11:41:41.276Z,9.70
2017-11-16T11:42:43.791Z,9.70
2017-11-16T11:43:46.258Z,9.70
2017-11-16T11:44:48.738Z,9.70
2017-11-16T11:45:51.191Z,9.80
2017-11-16T11:46:53.683Z,9.80
2017-11-16T11:47:56.196Z,9.80
2017-11-16T11:48:58.664Z,9.80
2017-11-16T11:50:01.147Z,9.80
2017-11-16T11:51:03.620Z,9.80
2017-11-16T11:52:06.148Z,9.90
2017-11-16T11:53:08.616Z,9.90
2017-11-16T11:54:11.837Z,9.90
2017-11-16T11:55:15.103Z,9.90
2017-11-16T11:56:18.351Z,10.00
2017-11-16T11:57:20.847Z,10.00
2017-11-16T11:58:23.317Z,10.00
2017-11-16T11:59:25.783Z,10.00
2017-11-16T12:00:28.253Z,9.90
2017-11-16T12:01:30.739Z,10.00
2017-11-16T12:02:33.211Z,10.00
2017-11-16T12:03:35.908Z,9.90
2017-11-16T12:04:39.771Z,9.90
2017-11-16T12:05:42.288Z,9.90
2017-11-16T12:06:45.582Z,10.00
2017-11-16T12:07:48.059Z,10.00
2017-11-16T12:08:51.315Z,10.00
2017-11-16T12:09:54.539Z,10.10
2017-11-16T12:10:57.130Z,10.10
2017-11-16T12:11:59.762Z,10.10
2017-11-16T12:13:02.232Z,10.10
2017-11-16T12:14:05.531Z,10.00
2017-11-16T12:15:08.000Z,10.00
2017-11-16T12:16:11.280Z,10.00
2017-11-16T12:17:13.809Z,10.00
2017-11-16T12:18:16.431Z,10.00
2017-11-16T12:19:18.913Z,10.00
2017-11-16T12:20:22.160Z,9.90
2017-11-16T12:21:25.424Z,9.90
2017-11-16T12:22:28.686Z,9.90
2017-11-16T12:23:31.176Z,9.90
2017-11-16T12:24:34.408Z,9.80
2017-11-16T12:25:37.648Z,9.80
2017-11-16T12:26:40.883Z,9.90
2017-11-16T12:27:43.538Z,9.80
2017-11-16T12:28:46.113Z,9.90
2017-11-16T12:29:48.579Z,9.80
2017-11-16T12:30:51.826Z,9.90
2017-11-16T12:31:54.479Z,9.90
2017-11-16T12:32:56.948Z,9.90
2017-11-16T12:33:59.434Z,9.90
2017-11-16T12:35:01.921Z,9.90
2017-11-16T12:36:05.165Z,9.90
2017-11-16T12:37:08.485Z,9.90
2017-11-16T12:38:11.159Z,9.90
2017-11-16T12:39:13.616Z,9.90
2017-11-16T12:40:16.098Z,10.00
2017-11-16T12:41:19.347Z,9.90
2017-11-16T12:42:21.867Z,10.00
2017-11-16T12:43:24.362Z,10.00
2017-11-16T12:44:27.616Z,10.00
2017-11-16T12:45:30.846Z,9.90
2017-11-16T12:46:33.312Z,9.90
2017-11-16T12:47:35.798Z,10.00
2017-11-16T12:48:38.370Z,10.00
2017-11-16T12:49:40.924Z,10.00
2017-11-16T12:50:43.407Z,10.00
2017-11-16T12:51:45.889Z,10.00
2017-11-16T12:52:48.356Z,10.00
2017-11-16T12:53:51.714Z,9.90
2017-11-16T12:54:54.333Z,9.90
2017-11-16T12:55:56.856Z,9.90
2017-11-16T12:56:59.316Z,9.90
2017-11-16T12:58:01.805Z,9.90
2017-11-16T12:59:05.070Z,9.90
2017-11-16T13:00:07.555Z,9.90
2017-11-16T13:01:10.016Z,9.90
2017-11-16T13:02:12.477Z,9.90
2017-11-16T13:03:16.537Z,9.90
2017-11-16T13:04:19.838Z,9.90
2017-11-16T13:05:22.505Z,9.90
2017-11-16T13:06:25.079Z,9.90
2017-11-16T13:07:27.587Z,9.90
2017-11-16T13:08:30.849Z,9.80
2017-11-16T13:09:33.340Z,9.80
2017-11-16T13:10:35.803Z,9.80
2017-11-16T13:11:38.264Z,9.80
2017-11-16T13:12:40.737Z,9.80
2017-11-16T13:13:43.991Z,9.90
2017-11-16T13:14:46.503Z,9.90
2017-11-16T13:15:49.735Z,9.80
2017-11-16T13:16:52.974Z,9.80
2017-11-16T13:17:55.425Z,9.80
2017-11-16T13:18:57.895Z,9.80
2017-11-16T13:20:00.394Z,9.70
2017-11-16T13:21:02.876Z,9.70
2017-11-16T13:22:05.340Z,9.70
2017-11-16T13:23:07.848Z,9.70
2017-11-16T13:24:10.296Z,9.60
2017-11-16T13:25:12.769Z,9.60
2017-11-16T13:26:15.231Z,9.60
2017-11-16T13:27:17.707Z,9.60
2017-11-16T13:28:20.259Z,9.60
2017-11-16T13:29:23.574Z,9.60
2017-11-16T13:30:26.043Z,9.60
2017-11-16T13:31:28.574Z,9.50
2017-11-16T13:32:31.096Z,9.60
2017-11-16T13:33:33.578Z,9.60
2017-11-16T13:34:36.049Z,9.50
2017-11-16T13:35:38.618Z,9.50
2017-11-16T13:36:41.312Z,9.60
2017-11-16T13:37:43.830Z,9.60
2017-11-16T13:38:47.048Z,9.60
2017-11-16T13:39:49.604Z,9.60
2017-11-16T13:40:52.085Z,9.60
2017-11-16T13:41:54.597Z,9.70
2017-11-16T13:42:57.845Z,9.70
2017-11-16T13:44:00.324Z,9.70
2017-11-16T13:45:02.842Z,9.70
2017-11-16T13:46:05.321Z,9.70
2017-11-16T13:47:07.881Z,9.80
2017-11-16T13:48:11.108Z,9.70
2017-11-16T13:49:14.358Z,9.70
2017-11-16T13:50:17.612Z,9.70
2017-11-16T13:51:20.877Z,9.70
2017-11-16T13:52:23.389Z,9.70
2017-11-16T13:53:25.932Z,9.70
2017-11-16T13:54:28.415Z,9.60